sensor_id;sensor_type;location;lat;lon;timestamp;temperature;humidity
55830;DHT22;41759;53.330;6.002;2023-10-09T00:02:11;14.60;99.90
55830;DHT22;41759;53.330;6.002;2023-10-09T00:04:41;14.60;99.90
55830;DHT22;41759;53.330;6.002;2023-10-09T00:07:08;14.70;99.90
55830;DHT22;41759;53.330;6.002;2023-10-09T00:09:35;14.60;99.90
55830;DHT22;41759;53.330;6.002;2023-10-09T00:12:18;14.60;99.90
55830;DHT22;41759;53.330;6.002;2023-10-09T00:14:48;14.60;99.90
55830;DHT22;41759;53.330;6.002;2023-10-09T00:17:17;14.60;99.90
55830;DHT22;41759;53.330;6.002;2023-10-09T00:19:44;14.60;99.90
55830;DHT22;41759;53.330;6.002;2023-10-09T00:22:14;14.70;99.90
55830;DHT22;41759;53.330;6.002;2023-10-09T00:24:56;14.70;99.90
55830;DHT22;41759;53.330;6.002;2023-10-09T00:27:44;14.70;99.90
55830;DHT22;41759;53.330;6.002;2023-10-09T00:30:16;14.70;99.90
55830;DHT22;41759;53.330;6.002;2023-10-09T00:32:47;14.70;99.90
55830;DHT22;41759;53.330;6.002;2023-10-09T00:35:37;14.70;99.90
55830;DHT22;41759;53.330;6.002;2023-10-09T00:38:09;14.70;99.90
55830;DHT22;41759;53.330;6.002;2023-10-09T00:40:51;14.70;99.90
55830;DHT22;41759;53.330;6.002;2023-10-09T00:43:30;14.70;99.90
55830;DHT22;41759;53.330;6.002;2023-10-09T00:45:59;14.70;99.90
55830;DHT22;41759;53.330;6.002;2023-10-09T00:48:28;14.70;99.90
55830;DHT22;41759;53.330;6.002;2023-10-09T00:51:03;14.70;99.90
55830;DHT22;41759;53.330;6.002;2023-10-09T00:53:48;14.70;99.90
55830;DHT22;41759;53.330;6.002;2023-10-09T00:56:18;14.70;99.90
55830;DHT22;41759;53.330;6.002;2023-10-09T00:58:58;14.70;99.90
55830;DHT22;41759;53.330;6.002;2023-10-09T01:01:41;14.70;99.90
55830;DHT22;41759;53.330;6.002;2023-10-09T01:04:11;14.70;99.90
55830;DHT22;41759;53.330;6.002;2023-10-09T01:06:46;14.70;99.90
55830;DHT22;41759;53.330;6.002;2023-10-09T01:09:31;14.70;99.90
55830;DHT22;41759;53.330;6.002;2023-10-09T01:12:03;14.70;99.90
55830;DHT22;41759;53.330;6.002;2023-10-09T01:14:32;14.70;99.90
55830;DHT22;41759;53.330;6.002;2023-10-09T01:17:05;14.80;99.90
55830;DHT22;41759;53.330;6.002;2023-10-09T01:19:33;14.70;99.90
55830;DHT22;41759;53.330;6.002;2023-10-09T01:21:59;14.70;99.90
55830;DHT22;41759;53.330;6.002;2023-10-09T01:24:40;14.70;99.90
55830;DHT22;41759;53.330;6.002;2023-10-09T01:27:06;14.70;99.90
55830;DHT22;41759;53.330;6.002;2023-10-09T01:29:42;14.70;99.90
55830;DHT22;41759;53.330;6.002;2023-10-09T01:32:08;14.70;99.90
55830;DHT22;41759;53.330;6.002;2023-10-09T01:34:42;14.70;99.90
55830;DHT22;41759;53.330;6.002;2023-10-09T01:37:09;14.80;99.90
55830;DHT22;41759;53.330;6.002;2023-10-09T01:39:53;14.70;99.90
55830;DHT22;41759;53.330;6.002;2023-10-09T01:42:19;14.80;99.90
55830;DHT22;41759;53.330;6.002;2023-10-09T01:44:54;14.80;99.90
55830;DHT22;41759;53.330;6.002;2023-10-09T01:47:21;14.80;99.90
55830;DHT22;41759;53.330;6.002;2023-10-09T01:49:48;14.80;99.90
55830;DHT22;41759;53.330;6.002;2023-10-09T01:52:18;14.80;99.90
55830;DHT22;41759;53.330;6.002;2023-10-09T01:54:46;14.80;99.90
55830;DHT22;41759;53.330;6.002;2023-10-09T01:57:15;14.80;99.90
55830;DHT22;41759;53.330;6.002;2023-10-09T01:59:44;14.80;99.90
55830;DHT22;41759;53.330;6.002;2023-10-09T02:02:13;14.80;99.90
55830;DHT22;41759;53.330;6.002;2023-10-09T02:05:06;14.80;99.90
55830;DHT22;41759;53.330;6.002;2023-10-09T02:07:38;14.80;99.90
55830;DHT22;41759;53.330;6.002;2023-10-09T02:10:11;14.80;99.90
55830;DHT22;41759;53.330;6.002;2023-10-09T02:13:07;14.80;99.90
55830;DHT22;41759;53.330;6.002;2023-10-09T02:15:38;14.90;99.90
55830;DHT22;41759;53.330;6.002;2023-10-09T02:18:18;14.90;99.90
55830;DHT22;41759;53.330;6.002;2023-10-09T02:21:05;14.90;99.90
55830;DHT22;41759;53.330;6.002;2023-10-09T02:23:35;14.90;99.90
55830;DHT22;41759;53.330;6.002;2023-10-09T02:26:14;14.90;99.90
55830;DHT22;41759;53.330;6.002;2023-10-09T02:29:13;15.00;99.90
55830;DHT22;41759;53.330;6.002;2023-10-09T02:31:38;15.00;99.90
55830;DHT22;41759;53.330;6.002;2023-10-09T02:34:11;15.10;99.90
55830;DHT22;41759;53.330;6.002;2023-10-09T02:36:38;15.10;99.90
55830;DHT22;41759;53.330;6.002;2023-10-09T02:39:07;15.20;99.90
55830;DHT22;41759;53.330;6.002;2023-10-09T02:41:47;15.20;99.90
55830;DHT22;41759;53.330;6.002;2023-10-09T02:44:15;15.20;99.90
55830;DHT22;41759;53.330;6.002;2023-10-09T02:46:41;15.90;99.90
55830;DHT22;41759;53.330;6.002;2023-10-09T02:49:10;15.30;99.90
55830;DHT22;41759;53.330;6.002;2023-10-09T02:51:41;15.30;99.90
55830;DHT22;41759;53.330;6.002;2023-10-09T02:54:08;15.30;99.90
55830;DHT22;41759;53.330;6.002;2023-10-09T02:56:51;15.40;99.90
55830;DHT22;41759;53.330;6.002;2023-10-09T02:59:20;15.40;99.90
55830;DHT22;41759;53.330;6.002;2023-10-09T03:01:48;15.40;99.90
55830;DHT22;41759;53.330;6.002;2023-10-09T03:04:14;15.40;99.90
55830;DHT22;41759;53.330;6.002;2023-10-09T03:06:41;15.40;99.90
55830;DHT22;41759;53.330;6.002;2023-10-09T03:09:19;15.40;99.90
55830;DHT22;41759;53.330;6.002;2023-10-09T03:12:01;15.40;99.90
55830;DHT22;41759;53.330;6.002;2023-10-09T03:14:37;15.40;99.90
55830;DHT22;41759;53.330;6.002;2023-10-09T03:17:07;15.40;99.90
55830;DHT22;41759;53.330;6.002;2023-10-09T03:19:37;15.40;99.90
55830;DHT22;41759;53.330;6.002;2023-10-09T03:22:04;15.40;99.90
55830;DHT22;41759;53.330;6.002;2023-10-09T03:24:30;15.40;99.90
55830;DHT22;41759;53.330;6.002;2023-10-09T03:26:59;15.40;99.90
55830;DHT22;41759;53.330;6.002;2023-10-09T03:29:26;15.40;99.90
55830;DHT22;41759;53.330;6.002;2023-10-09T03:31:53;15.50;99.90
55830;DHT22;41759;53.330;6.002;2023-10-09T03:34:21;15.50;99.90
55830;DHT22;41759;53.330;6.002;2023-10-09T03:36:47;15.50;99.90
55830;DHT22;41759;53.330;6.002;2023-10-09T03:39:14;15.50;99.90
55830;DHT22;41759;53.330;6.002;2023-10-09T03:41:58;15.50;99.90
55830;DHT22;41759;53.330;6.002;2023-10-09T03:44:27;15.50;99.90
55830;DHT22;41759;53.330;6.002;2023-10-09T03:46:54;15.60;99.90
55830;DHT22;41759;53.330;6.002;2023-10-09T03:49:20;15.60;99.90
55830;DHT22;41759;53.330;6.002;2023-10-09T03:51:53;15.70;99.90
55830;DHT22;41759;53.330;6.002;2023-10-09T03:54:19;15.70;99.90
55830;DHT22;41759;53.330;6.002;2023-10-09T03:56:48;15.70;99.90
55830;DHT22;41759;53.330;6.002;2023-10-09T03:59:21;15.80;99.90
55830;DHT22;41759;53.330;6.002;2023-10-09T04:01:50;15.80;99.90
55830;DHT22;41759;53.330;6.002;2023-10-09T04:04:18;15.90;99.90
55830;DHT22;41759;53.330;6.002;2023-10-09T04:06:48;15.90;99.90
55830;DHT22;41759;53.330;6.002;2023-10-09T04:09:14;15.90;99.90
55830;DHT22;41759;53.330;6.002;2023-10-09T04:11:40;16.00;99.90
55830;DHT22;41759;53.330;6.002;2023-10-09T04:14:12;16.00;99.90
55830;DHT22;41759;53.330;6.002;2023-10-09T04:16:48;16.00;99.90
55830;DHT22;41759;53.330;6.002;2023-10-09T04:19:17;16.00;99.90
55830;DHT22;41759;53.330;6.002;2023-10-09T04:21:48;16.00;99.90
55830;DHT22;41759;53.330;6.002;2023-10-09T04:24:14;16.10;99.90
55830;DHT22;41759;53.330;6.002;2023-10-09T04:26:41;16.10;99.90
55830;DHT22;41759;53.330;6.002;2023-10-09T04:29:11;16.10;99.90
55830;DHT22;41759;53.330;6.002;2023-10-09T04:31:49;16.10;99.90
55830;DHT22;41759;53.330;6.002;2023-10-09T04:34:18;16.10;99.90
55830;DHT22;41759;53.330;6.002;2023-10-09T04:36:48;16.10;99.90
55830;DHT22;41759;53.330;6.002;2023-10-09T04:39:22;16.10;99.90
55830;DHT22;41759;53.330;6.002;2023-10-09T04:41:57;16.10;99.90
55830;DHT22;41759;53.330;6.002;2023-10-09T04:44:42;16.10;99.90
55830;DHT22;41759;53.330;6.002;2023-10-09T04:47:30;16.10;99.90
55830;DHT22;41759;53.330;6.002;2023-10-09T04:50:07;16.10;99.90
55830;DHT22;41759;53.330;6.002;2023-10-09T04:52:52;15.70;99.90
55830;DHT22;41759;53.330;6.002;2023-10-09T04:55:18;16.00;99.90
55830;DHT22;41759;53.330;6.002;2023-10-09T04:57:48;16.00;99.90
55830;DHT22;41759;53.330;6.002;2023-10-09T05:00:26;16.10;99.90
55830;DHT22;41759;53.330;6.002;2023-10-09T05:02:57;16.10;99.90
55830;DHT22;41759;53.330;6.002;2023-10-09T05:05:26;16.10;99.90
55830;DHT22;41759;53.330;6.002;2023-10-09T05:10:59;16.00;99.90
55830;DHT22;41759;53.330;6.002;2023-10-09T05:16:06;16.00;99.90
55830;DHT22;41759;53.330;6.002;2023-10-09T05:18:42;16.00;99.90
55830;DHT22;41759;53.330;6.002;2023-10-09T05:21:11;16.00;99.90
55830;DHT22;41759;53.330;6.002;2023-10-09T05:23:39;16.00;99.90
55830;DHT22;41759;53.330;6.002;2023-10-09T05:26:15;16.00;99.90
55830;DHT22;41759;53.330;6.002;2023-10-09T05:28:59;16.00;99.90
55830;DHT22;41759;53.330;6.002;2023-10-09T05:31:25;16.00;99.90
55830;DHT22;41759;53.330;6.002;2023-10-09T05:34:19;16.10;99.90
55830;DHT22;41759;53.330;6.002;2023-10-09T05:36:47;16.00;99.90
55830;DHT22;41759;53.330;6.002;2023-10-09T05:39:13;16.10;99.90
55830;DHT22;41759;53.330;6.002;2023-10-09T05:42:06;16.10;99.90
55830;DHT22;41759;53.330;6.002;2023-10-09T05:44:37;16.00;99.90
55830;DHT22;41759;53.330;6.002;2023-10-09T05:47:41;16.10;99.90
55830;DHT22;41759;53.330;6.002;2023-10-09T05:50:24;16.10;99.90
55830;DHT22;41759;53.330;6.002;2023-10-09T05:52:51;16.10;99.90
55830;DHT22;41759;53.330;6.002;2023-10-09T05:55:17;16.10;99.90
55830;DHT22;41759;53.330;6.002;2023-10-09T06:00:36;16.10;99.90
55830;DHT22;41759;53.330;6.002;2023-10-09T06:03:20;16.10;99.90
55830;DHT22;41759;53.330;6.002;2023-10-09T06:05:53;16.10;99.90
55830;DHT22;41759;53.330;6.002;2023-10-09T06:08:23;16.10;99.90
55830;DHT22;41759;53.330;6.002;2023-10-09T06:10:55;16.10;99.90
55830;DHT22;41759;53.330;6.002;2023-10-09T06:13:53;16.10;99.90
55830;DHT22;41759;53.330;6.002;2023-10-09T06:16:28;16.10;99.90
55830;DHT22;41759;53.330;6.002;2023-10-09T06:19:14;16.10;99.90
55830;DHT22;41759;53.330;6.002;2023-10-09T06:22:00;16.10;99.90
55830;DHT22;41759;53.330;6.002;2023-10-09T06:24:41;16.10;99.90
55830;DHT22;41759;53.330;6.002;2023-10-09T06:27:11;16.00;99.90
55830;DHT22;41759;53.330;6.002;2023-10-09T06:29:39;16.00;99.90
55830;DHT22;41759;53.330;6.002;2023-10-09T06:32:14;16.10;99.90
55830;DHT22;41759;53.330;6.002;2023-10-09T06:37:23;16.00;99.90
55830;DHT22;41759;53.330;6.002;2023-10-09T06:39:58;16.00;99.90
55830;DHT22;41759;53.330;6.002;2023-10-09T06:42:28;16.00;99.90
55830;DHT22;41759;53.330;6.002;2023-10-09T06:45:00;16.00;99.90
55830;DHT22;41759;53.330;6.002;2023-10-09T06:47:30;16.00;99.90
55830;DHT22;41759;53.330;6.002;2023-10-09T06:50:02;16.00;99.90
55830;DHT22;41759;53.330;6.002;2023-10-09T06:52:46;16.00;99.90
55830;DHT22;41759;53.330;6.002;2023-10-09T06:55:41;16.00;99.90
55830;DHT22;41759;53.330;6.002;2023-10-09T06:58:17;16.00;99.90
55830;DHT22;41759;53.330;6.002;2023-10-09T07:00:54;16.00;99.90
55830;DHT22;41759;53.330;6.002;2023-10-09T07:03:38;16.00;99.90
55830;DHT22;41759;53.330;6.002;2023-10-09T07:06:19;16.00;99.90
55830;DHT22;41759;53.330;6.002;2023-10-09T07:08:56;16.00;99.90
55830;DHT22;41759;53.330;6.002;2023-10-09T07:11:34;16.00;99.90
55830;DHT22;41759;53.330;6.002;2023-10-09T07:16:59;16.00;99.90
55830;DHT22;41759;53.330;6.002;2023-10-09T07:19:32;16.00;99.90
55830;DHT22;41759;53.330;6.002;2023-10-09T07:22:18;16.00;99.90
55830;DHT22;41759;53.330;6.002;2023-10-09T07:24:49;16.00;99.90
55830;DHT22;41759;53.330;6.002;2023-10-09T07:27:22;16.00;99.90
55830;DHT22;41759;53.330;6.002;2023-10-09T07:30:10;16.00;99.90
55830;DHT22;41759;53.330;6.002;2023-10-09T07:32:56;16.00;99.90
55830;DHT22;41759;53.330;6.002;2023-10-09T07:35:34;16.00;99.90
55830;DHT22;41759;53.330;6.002;2023-10-09T07:38:16;16.00;99.90
55830;DHT22;41759;53.330;6.002;2023-10-09T07:40:47;16.00;99.90
55830;DHT22;41759;53.330;6.002;2023-10-09T07:43:29;16.00;99.90
55830;DHT22;41759;53.330;6.002;2023-10-09T07:46:09;16.10;99.90
55830;DHT22;41759;53.330;6.002;2023-10-09T07:51:26;16.10;99.90
55830;DHT22;41759;53.330;6.002;2023-10-09T07:53:59;16.10;99.90
55830;DHT22;41759;53.330;6.002;2023-10-09T07:56:34;16.10;99.90
55830;DHT22;41759;53.330;6.002;2023-10-09T07:59:13;16.10;99.90
55830;DHT22;41759;53.330;6.002;2023-10-09T08:01:43;16.10;99.90
55830;DHT22;41759;53.330;6.002;2023-10-09T08:04:24;16.10;99.90
55830;DHT22;41759;53.330;6.002;2023-10-09T08:07:15;16.10;99.90
55830;DHT22;41759;53.330;6.002;2023-10-09T08:10:04;16.20;99.90
55830;DHT22;41759;53.330;6.002;2023-10-09T08:12:39;16.20;99.90
55830;DHT22;41759;53.330;6.002;2023-10-09T08:15:24;16.20;99.90
55830;DHT22;41759;53.330;6.002;2023-10-09T08:18:00;16.20;99.90
55830;DHT22;41759;53.330;6.002;2023-10-09T08:20:36;16.20;99.90
55830;DHT22;41759;53.330;6.002;2023-10-09T08:23:19;16.20;99.90
55830;DHT22;41759;53.330;6.002;2023-10-09T08:26:09;16.20;99.90
55830;DHT22;41759;53.330;6.002;2023-10-09T08:28:41;16.20;99.90
55830;DHT22;41759;53.330;6.002;2023-10-09T08:31:17;16.20;99.90
55830;DHT22;41759;53.330;6.002;2023-10-09T08:34:02;16.20;99.90
55830;DHT22;41759;53.330;6.002;2023-10-09T08:36:29;16.20;99.90
55830;DHT22;41759;53.330;6.002;2023-10-09T08:39:04;16.30;99.90
55830;DHT22;41759;53.330;6.002;2023-10-09T08:41:43;16.30;99.90
55830;DHT22;41759;53.330;6.002;2023-10-09T08:44:12;16.30;99.90
55830;DHT22;41759;53.330;6.002;2023-10-09T08:46:42;16.30;99.90
55830;DHT22;41759;53.330;6.002;2023-10-09T08:49:08;16.30;99.90
55830;DHT22;41759;53.330;6.002;2023-10-09T08:51:36;16.40;99.90
55830;DHT22;41759;53.330;6.002;2023-10-09T08:54:03;16.40;99.90
55830;DHT22;41759;53.330;6.002;2023-10-09T08:56:30;16.40;99.90
55830;DHT22;41759;53.330;6.002;2023-10-09T08:58:58;16.40;99.90
55830;DHT22;41759;53.330;6.002;2023-10-09T09:01:27;16.40;99.90
55830;DHT22;41759;53.330;6.002;2023-10-09T09:03:57;16.40;99.90
55830;DHT22;41759;53.330;6.002;2023-10-09T09:06:25;16.40;99.90
55830;DHT22;41759;53.330;6.002;2023-10-09T09:08:52;16.40;99.90
55830;DHT22;41759;53.330;6.002;2023-10-09T09:11:25;16.50;99.90
55830;DHT22;41759;53.330;6.002;2023-10-09T09:16:31;16.40;99.90
55830;DHT22;41759;53.330;6.002;2023-10-09T09:19:02;16.50;99.90
55830;DHT22;41759;53.330;6.002;2023-10-09T09:21:32;16.50;99.90
55830;DHT22;41759;53.330;6.002;2023-10-09T09:24:09;16.50;99.90
55830;DHT22;41759;53.330;6.002;2023-10-09T09:26:48;16.50;99.90
55830;DHT22;41759;53.330;6.002;2023-10-09T09:32:10;16.50;99.90
55830;DHT22;41759;53.330;6.002;2023-10-09T09:34:53;16.50;99.90
55830;DHT22;41759;53.330;6.002;2023-10-09T09:37:31;16.60;99.90
55830;DHT22;41759;53.330;6.002;2023-10-09T09:40:17;16.60;99.90
55830;DHT22;41759;53.330;6.002;2023-10-09T09:42:59;16.60;99.90
55830;DHT22;41759;53.330;6.002;2023-10-09T09:45:35;16.60;99.90
55830;DHT22;41759;53.330;6.002;2023-10-09T09:48:05;16.60;99.90
55830;DHT22;41759;53.330;6.002;2023-10-09T09:50:38;16.60;99.90
55830;DHT22;41759;53.330;6.002;2023-10-09T09:53:13;16.60;99.90
55830;DHT22;41759;53.330;6.002;2023-10-09T09:55:50;16.60;99.90
55830;DHT22;41759;53.330;6.002;2023-10-09T09:58:23;16.60;99.90
55830;DHT22;41759;53.330;6.002;2023-10-09T10:00:53;16.60;99.90
55830;DHT22;41759;53.330;6.002;2023-10-09T10:05:51;16.70;99.90
55830;DHT22;41759;53.330;6.002;2023-10-09T10:08:20;16.70;99.90
55830;DHT22;41759;53.330;6.002;2023-10-09T10:10:49;16.70;99.90
55830;DHT22;41759;53.330;6.002;2023-10-09T10:16:12;16.80;99.90
55830;DHT22;41759;53.330;6.002;2023-10-09T10:18:56;16.80;99.90
55830;DHT22;41759;53.330;6.002;2023-10-09T10:21:26;16.80;99.90
55830;DHT22;41759;53.330;6.002;2023-10-09T10:23:59;16.80;99.90
55830;DHT22;41759;53.330;6.002;2023-10-09T10:26:37;16.80;99.90
55830;DHT22;41759;53.330;6.002;2023-10-09T10:31:58;16.80;99.90
55830;DHT22;41759;53.330;6.002;2023-10-09T10:34:26;17.00;99.90
55830;DHT22;41759;53.330;6.002;2023-10-09T10:36:53;16.70;99.90
55830;DHT22;41759;53.330;6.002;2023-10-09T10:39:25;16.70;99.90
55830;DHT22;41759;53.330;6.002;2023-10-09T10:42:09;17.60;99.90
55830;DHT22;41759;53.330;6.002;2023-10-09T10:44:57;16.70;99.90
55830;DHT22;41759;53.330;6.002;2023-10-09T10:47:27;16.70;99.90
55830;DHT22;41759;53.330;6.002;2023-10-09T10:50:02;16.70;99.90
55830;DHT22;41759;53.330;6.002;2023-10-09T10:52:47;16.70;99.90
55830;DHT22;41759;53.330;6.002;2023-10-09T10:55:23;16.70;99.90
55830;DHT22;41759;53.330;6.002;2023-10-09T10:58:01;16.70;99.90
55830;DHT22;41759;53.330;6.002;2023-10-09T11:00:28;16.70;99.90
55830;DHT22;41759;53.330;6.002;2023-10-09T11:03:22;16.60;99.90
55830;DHT22;41759;53.330;6.002;2023-10-09T11:09:06;16.60;99.90
55830;DHT22;41759;53.330;6.002;2023-10-09T11:11:37;16.60;99.90
55830;DHT22;41759;53.330;6.002;2023-10-09T11:14:13;16.60;99.90
55830;DHT22;41759;53.330;6.002;2023-10-09T11:16:49;16.60;99.90
55830;DHT22;41759;53.330;6.002;2023-10-09T11:19:22;16.70;99.90
55830;DHT22;41759;53.330;6.002;2023-10-09T11:21:54;16.60;99.90
55830;DHT22;41759;53.330;6.002;2023-10-09T11:24:33;16.60;99.90
55830;DHT22;41759;53.330;6.002;2023-10-09T11:27:04;16.70;99.90
55830;DHT22;41759;53.330;6.002;2023-10-09T11:29:33;16.70;99.90
55830;DHT22;41759;53.330;6.002;2023-10-09T11:32:14;16.70;99.90
55830;DHT22;41759;53.330;6.002;2023-10-09T11:34:48;16.70;99.90
55830;DHT22;41759;53.330;6.002;2023-10-09T11:37:19;16.70;99.90
55830;DHT22;41759;53.330;6.002;2023-10-09T11:40:04;16.80;99.90
55830;DHT22;41759;53.330;6.002;2023-10-09T11:42:49;16.80;99.90
55830;DHT22;41759;53.330;6.002;2023-10-09T11:45:26;16.90;99.90
55830;DHT22;41759;53.330;6.002;2023-10-09T11:47:57;16.80;99.90
55830;DHT22;41759;53.330;6.002;2023-10-09T11:50:45;16.90;99.90
55830;DHT22;41759;53.330;6.002;2023-10-09T11:53:14;16.90;99.90
55830;DHT22;41759;53.330;6.002;2023-10-09T11:55:50;16.90;99.90
55830;DHT22;41759;53.330;6.002;2023-10-09T11:58:22;16.90;99.90
55830;DHT22;41759;53.330;6.002;2023-10-09T12:00:55;17.00;99.90
55830;DHT22;41759;53.330;6.002;2023-10-09T12:03:26;17.00;99.90
55830;DHT22;41759;53.330;6.002;2023-10-09T12:06:00;17.00;99.90
55830;DHT22;41759;53.330;6.002;2023-10-09T12:08:38;17.00;99.90
55830;DHT22;41759;53.330;6.002;2023-10-09T12:11:06;17.00;99.90
55830;DHT22;41759;53.330;6.002;2023-10-09T12:13:38;17.00;99.90
55830;DHT22;41759;53.330;6.002;2023-10-09T12:16:04;17.00;99.90
55830;DHT22;41759;53.330;6.002;2023-10-09T12:18:34;16.70;99.90
55830;DHT22;41759;53.330;6.002;2023-10-09T12:21:00;17.00;99.90
55830;DHT22;41759;53.330;6.002;2023-10-09T12:23:30;17.00;99.90
55830;DHT22;41759;53.330;6.002;2023-10-09T12:26:02;17.00;99.90
55830;DHT22;41759;53.330;6.002;2023-10-09T12:28:28;17.00;99.90
55830;DHT22;41759;53.330;6.002;2023-10-09T12:30:55;16.90;99.90
55830;DHT22;41759;53.330;6.002;2023-10-09T12:33:21;16.90;99.90
55830;DHT22;41759;53.330;6.002;2023-10-09T12:35:54;16.90;99.90
55830;DHT22;41759;53.330;6.002;2023-10-09T12:38:27;16.90;99.90
55830;DHT22;41759;53.330;6.002;2023-10-09T12:41:06;16.90;99.90
55830;DHT22;41759;53.330;6.002;2023-10-09T12:43:46;16.90;99.90
55830;DHT22;41759;53.330;6.002;2023-10-09T12:46:12;17.00;99.90
55830;DHT22;41759;53.330;6.002;2023-10-09T12:48:43;17.00;99.90
55830;DHT22;41759;53.330;6.002;2023-10-09T12:51:12;17.00;99.90
55830;DHT22;41759;53.330;6.002;2023-10-09T12:53:45;17.00;99.90
55830;DHT22;41759;53.330;6.002;2023-10-09T12:56:14;17.10;99.90
55830;DHT22;41759;53.330;6.002;2023-10-09T12:58:43;17.10;99.90
55830;DHT22;41759;53.330;6.002;2023-10-09T13:01:18;17.10;99.90
55830;DHT22;41759;53.330;6.002;2023-10-09T13:03:46;17.10;99.90
55830;DHT22;41759;53.330;6.002;2023-10-09T13:06:15;17.10;99.90
55830;DHT22;41759;53.330;6.002;2023-10-09T13:08:49;17.10;99.90
55830;DHT22;41759;53.330;6.002;2023-10-09T13:11:17;17.10;99.90
55830;DHT22;41759;53.330;6.002;2023-10-09T13:13:45;17.10;99.90
55830;DHT22;41759;53.330;6.002;2023-10-09T13:16:20;17.20;99.90
55830;DHT22;41759;53.330;6.002;2023-10-09T13:18:56;17.20;99.90
55830;DHT22;41759;53.330;6.002;2023-10-09T13:21:27;17.30;99.90
55830;DHT22;41759;53.330;6.002;2023-10-09T13:23:58;17.20;99.90
55830;DHT22;41759;53.330;6.002;2023-10-09T13:26:25;17.30;99.90
55830;DHT22;41759;53.330;6.002;2023-10-09T13:29:01;17.30;99.90
55830;DHT22;41759;53.330;6.002;2023-10-09T13:31:28;17.30;99.90
55830;DHT22;41759;53.330;6.002;2023-10-09T13:33:57;17.20;99.90
55830;DHT22;41759;53.330;6.002;2023-10-09T13:36:27;17.20;99.90
55830;DHT22;41759;53.330;6.002;2023-10-09T13:38:57;17.10;99.90
55830;DHT22;41759;53.330;6.002;2023-10-09T13:41:23;17.10;99.90
55830;DHT22;41759;53.330;6.002;2023-10-09T13:43:55;17.00;99.90
55830;DHT22;41759;53.330;6.002;2023-10-09T13:46:23;17.00;99.90
55830;DHT22;41759;53.330;6.002;2023-10-09T13:48:50;16.90;99.90
55830;DHT22;41759;53.330;6.002;2023-10-09T13:51:18;16.90;99.90
55830;DHT22;41759;53.330;6.002;2023-10-09T13:53:47;16.90;99.90
55830;DHT22;41759;53.330;6.002;2023-10-09T13:56:18;16.80;99.90
55830;DHT22;41759;53.330;6.002;2023-10-09T13:58:49;16.80;99.90
55830;DHT22;41759;53.330;6.002;2023-10-09T14:01:18;16.70;99.90
55830;DHT22;41759;53.330;6.002;2023-10-09T14:03:58;16.80;99.90
55830;DHT22;41759;53.330;6.002;2023-10-09T14:06:25;16.80;99.90
55830;DHT22;41759;53.330;6.002;2023-10-09T14:09:03;16.80;99.90
55830;DHT22;41759;53.330;6.002;2023-10-09T14:11:31;16.80;99.90
55830;DHT22;41759;53.330;6.002;2023-10-09T14:13:57;16.80;99.90
55830;DHT22;41759;53.330;6.002;2023-10-09T14:16:28;16.80;99.90
55830;DHT22;41759;53.330;6.002;2023-10-09T14:18:56;16.80;99.90
55830;DHT22;41759;53.330;6.002;2023-10-09T14:21:29;16.80;99.90
55830;DHT22;41759;53.330;6.002;2023-10-09T14:23:58;16.80;99.90
55830;DHT22;41759;53.330;6.002;2023-10-09T14:26:28;16.90;99.90
55830;DHT22;41759;53.330;6.002;2023-10-09T14:28:55;16.90;99.90
55830;DHT22;41759;53.330;6.002;2023-10-09T14:31:28;16.90;99.90
55830;DHT22;41759;53.330;6.002;2023-10-09T14:33:58;16.90;99.90
55830;DHT22;41759;53.330;6.002;2023-10-09T14:36:24;16.90;99.90
55830;DHT22;41759;53.330;6.002;2023-10-09T14:39:01;16.90;99.90
55830;DHT22;41759;53.330;6.002;2023-10-09T14:41:29;16.90;99.90
55830;DHT22;41759;53.330;6.002;2023-10-09T14:43:59;16.90;99.90
55830;DHT22;41759;53.330;6.002;2023-10-09T14:46:25;16.90;99.90
55830;DHT22;41759;53.330;6.002;2023-10-09T14:48:53;16.90;99.90
55830;DHT22;41759;53.330;6.002;2023-10-09T14:51:23;16.90;99.90
55830;DHT22;41759;53.330;6.002;2023-10-09T14:53:56;16.90;99.90
55830;DHT22;41759;53.330;6.002;2023-10-09T14:56:30;16.80;99.90
55830;DHT22;41759;53.330;6.002;2023-10-09T14:59:00;16.80;99.90
55830;DHT22;41759;53.330;6.002;2023-10-09T15:01:26;17.40;99.90
55830;DHT22;41759;53.330;6.002;2023-10-09T15:03:59;16.80;99.90
55830;DHT22;41759;53.330;6.002;2023-10-09T15:06:29;16.80;99.90
55830;DHT22;41759;53.330;6.002;2023-10-09T15:08:58;16.80;99.90
55830;DHT22;41759;53.330;6.002;2023-10-09T15:11:33;16.80;99.90
55830;DHT22;41759;53.330;6.002;2023-10-09T15:13:59;16.80;99.90
55830;DHT22;41759;53.330;6.002;2023-10-09T15:16:25;16.70;99.90
55830;DHT22;41759;53.330;6.002;2023-10-09T15:18:56;16.70;99.90
55830;DHT22;41759;53.330;6.002;2023-10-09T15:21:28;16.70;99.90
55830;DHT22;41759;53.330;6.002;2023-10-09T15:23:58;16.60;99.90
55830;DHT22;41759;53.330;6.002;2023-10-09T15:26:25;16.60;99.90
55830;DHT22;41759;53.330;6.002;2023-10-09T15:28:51;16.60;99.90
55830;DHT22;41759;53.330;6.002;2023-10-09T15:31:17;16.60;99.90
55830;DHT22;41759;53.330;6.002;2023-10-09T15:33:44;16.60;99.90
55830;DHT22;41759;53.330;6.002;2023-10-09T15:36:14;16.60;99.90
55830;DHT22;41759;53.330;6.002;2023-10-09T15:38:40;16.60;99.90
55830;DHT22;41759;53.330;6.002;2023-10-09T15:41:06;16.60;99.90
55830;DHT22;41759;53.330;6.002;2023-10-09T15:43:33;16.70;99.90
55830;DHT22;41759;53.330;6.002;2023-10-09T15:46:00;16.70;99.90
55830;DHT22;41759;53.330;6.002;2023-10-09T15:48:27;16.60;99.90
55830;DHT22;41759;53.330;6.002;2023-10-09T15:50:53;16.60;99.90
55830;DHT22;41759;53.330;6.002;2023-10-09T15:53:19;16.60;99.90
55830;DHT22;41759;53.330;6.002;2023-10-09T15:55:47;16.60;99.90
55830;DHT22;41759;53.330;6.002;2023-10-09T15:58:19;16.60;99.90
55830;DHT22;41759;53.330;6.002;2023-10-09T16:00:45;16.50;99.90
55830;DHT22;41759;53.330;6.002;2023-10-09T16:03:11;16.50;99.90
55830;DHT22;41759;53.330;6.002;2023-10-09T16:05:40;16.50;99.90
55830;DHT22;41759;53.330;6.002;2023-10-09T16:08:06;16.50;99.90
55830;DHT22;41759;53.330;6.002;2023-10-09T16:10:32;16.50;99.90
55830;DHT22;41759;53.330;6.002;2023-10-09T16:13:00;16.50;99.90
55830;DHT22;41759;53.330;6.002;2023-10-09T16:15:27;16.40;99.90
55830;DHT22;41759;53.330;6.002;2023-10-09T16:17:54;16.40;99.90
55830;DHT22;41759;53.330;6.002;2023-10-09T16:20:32;16.40;99.90
55830;DHT22;41759;53.330;6.002;2023-10-09T16:22:58;16.40;99.90
55830;DHT22;41759;53.330;6.002;2023-10-09T16:25:28;16.40;99.90
55830;DHT22;41759;53.330;6.002;2023-10-09T16:27:54;16.30;99.90
55830;DHT22;41759;53.330;6.002;2023-10-09T16:30:21;16.30;99.90
55830;DHT22;41759;53.330;6.002;2023-10-09T16:32:48;16.30;99.90
55830;DHT22;41759;53.330;6.002;2023-10-09T16:35:14;15.90;99.90
55830;DHT22;41759;53.330;6.002;2023-10-09T16:37:42;16.20;99.90
55830;DHT22;41759;53.330;6.002;2023-10-09T16:40:09;16.30;99.90